Time;durP1;ratioP1;P1;durP2;ratioP2;P2;SDS_P1;SDS_P2;PMS_P1;PMS_P2;Temp;Humidity;BMP_temperature;BMP_pressure;BME280_temperature;BME280_humidity;BME280_pressure;Samples;Min_cycle;Max_cycle;Signal;HPM_P1;HPM_P2
2023/04/08 00:02:15;;;;;;;33.85;16.90;;;;;;;7.24;59.58;99913.94;4487075;31;20136;-88
2023/04/08 00:04:40;;;;;;;30.70;17.02;;;;;;;7.42;59.60;99917.13;4501498;31;20099;-88
2023/04/08 00:07:06;;;;;;;32.65;17.15;;;;;;;7.44;59.60;99911.03;4474333;31;20108;-88
2023/04/08 00:09:31;;;;;;;35.78;17.83;;;;;;;7.41;59.60;99913.69;4488198;31;20164;-88
2023/04/08 00:11:57;;;;;;;33.08;16.67;;;;;;;7.30;59.59;99908.66;4488968;31;20388;-88
2023/04/08 00:14:22;;;;;;;34.60;17.77;;;;;;;7.27;59.58;99919.06;4474270;31;20346;-88
2023/04/08 00:16:48;;;;;;;36.33;17.80;;;;;;;7.21;59.58;99920.91;4486853;31;20111;-88
2023/04/08 00:19:13;;;;;;;39.28;17.70;;;;;;;7.21;59.58;99918.31;4473712;31;20120;-88
2023/04/08 00:21:39;;;;;;;32.72;17.27;;;;;;;7.40;59.59;99917.16;4486776;31;20330;-88
2023/04/08 00:24:05;;;;;;;37.03;17.50;;;;;;;7.32;59.58;99919.84;4499929;31;20118;-88
2023/04/08 00:26:31;;;;;;;33.13;16.98;;;;;;;7.23;59.58;99924.34;4486900;31;20163;-88
2023/04/08 00:28:56;;;;;;;44.30;20.48;;;;;;;7.16;59.58;99925.31;4486826;31;20100;-88
2023/04/08 00:31:22;;;;;;;34.72;17.87;;;;;;;7.14;59.58;99917.56;4472946;31;36107;-88
2023/04/08 00:33:48;;;;;;;37.50;17.92;;;;;;;7.20;59.58;99916.63;4473669;31;20168;-88
2023/04/08 00:36:13;;;;;;;35.58;18.60;;;;;;;7.21;59.58;99923.50;4500677;31;25361;-87
2023/04/08 00:38:39;;;;;;;36.95;19.23;;;;;;;7.30;59.58;99913.00;4499518;31;21599;-88
2023/04/08 00:41:04;;;;;;;52.97;22.62;;;;;;;7.23;59.58;99914.84;4486577;31;20365;-88
2023/04/08 00:43:30;;;;;;;38.40;18.70;;;;;;;7.21;59.58;99921.78;4473345;31;20096;-87
2023/04/08 00:45:55;;;;;;;36.50;17.70;;;;;;;7.23;59.58;99919.16;4473361;31;20790;-87
2023/04/08 00:48:21;;;;;;;37.78;19.55;;;;;;;7.15;59.58;99919.28;4486520;31;20424;-87
2023/04/08 00:50:46;;;;;;;32.25;16.40;;;;;;;7.12;59.58;99921.94;4487337;31;34128;-88
2023/04/08 00:53:14;;;;;;;35.70;18.35;;;;;;;7.09;59.57;99932.28;4501716;31;20227;-87
2023/04/08 00:55:40;;;;;;;37.65;17.95;;;;;;;7.00;59.56;99928.12;4475596;31;20168;-87
2023/04/08 00:58:05;;;;;;;43.20;18.87;;;;;;;7.02;59.58;99926.38;4487702;31;35904;-87
2023/04/08 01:00:31;;;;;;;33.08;17.92;;;;;;;7.16;59.57;99921.00;4488783;31;20095;-88
2023/04/08 01:03:12;;;;;;;39.90;18.52;;;;;;;7.13;59.58;99920.19;4501651;31;20173;-88
2023/04/08 01:05:43;;;;;;;35.80;18.62;;;;;;;7.08;59.57;99928.00;4489338;31;20112;-88
2023/04/08 01:08:09;;;;;;;33.13;17.20;;;;;;;6.92;59.56;99917.03;4501682;31;20122;-88
2023/04/08 01:10:34;;;;;;;30.23;16.65;;;;;;;6.93;59.56;99917.91;4475555;31;20128;-87
2023/04/08 01:13:04;;;;;;;32.17;16.52;;;;;;;6.96;59.57;99921.28;4501678;31;20230;-87
2023/04/08 01:15:29;;;;;;;;;;;;;;;6.99;59.57;99926.41;4488959;31;20380;-87
2023/04/08 01:17:56;;;;;;;31.27;16.27;;;;;;;6.93;59.57;99921.34;4488468;31;19987;-88
2023/04/08 01:20:23;;;;;;;27.67;15.13;;;;;;;6.90;59.56;99923.13;4488754;31;20185;-88
2023/04/08 01:22:53;;;;;;;33.33;16.60;;;;;;;6.93;59.56;99923.06;4489003;31;20143;-88
2023/04/08 01:25:25;;;;;;;30.40;15.52;;;;;;;6.91;59.56;99924.81;4501969;31;20104;-87
2023/04/08 01:27:50;;;;;;;31.00;16.15;;;;;;;6.87;59.56;99925.75;4489547;31;20108;-87
2023/04/08 01:30:20;;;;;;;35.58;17.83;;;;;;;6.87;59.56;99921.44;4489157;31;27643;-89
2023/04/08 01:32:45;;;;;;;29.75;15.40;;;;;;;6.77;59.56;99931.03;4489987;31;20105;-88
2023/04/08 01:35:10;;;;;;;30.75;15.48;;;;;;;6.86;59.56;99931.78;4488494;31;20092;-87
2023/04/08 01:37:36;;;;;;;28.85;15.75;;;;;;;6.73;59.56;99919.03;4501131;31;21816;-87
2023/04/08 01:40:01;;;;;;;29.52;14.80;;;;;;;6.77;59.55;99919.84;4474634;31;26610;-88
2023/04/08 01:42:27;;;;;;;29.55;15.55;;;;;;;6.86;59.56;99924.00;4488417;31;20355;-87
2023/04/08 01:44:54;;;;;;;29.52;15.32;;;;;;;6.77;59.55;99920.69;4487717;31;23362;-87
2023/04/08 01:47:20;;;;;;;33.92;16.48;;;;;;;6.69;59.55;99921.69;4488425;31;20104;-88
2023/04/08 01:49:45;;;;;;;30.02;15.15;;;;;;;6.87;59.56;99923.16;4487407;31;33046;-88
2023/04/08 01:52:11;;;;;;;32.95;15.85;;;;;;;6.71;59.55;99918.19;4474893;31;20079;-88
2023/04/08 01:54:36;;;;;;;31.87;15.23;;;;;;;6.90;59.57;99917.94;4487724;31;23094;-89
2023/04/08 01:57:07;;;;;;;33.85;16.25;;;;;;;6.73;59.56;99920.75;4475064;31;20108;-88
2023/04/08 01:59:34;;;;;;;29.90;15.95;;;;;;;6.83;59.56;99919.75;4488736;31;20160;-88
2023/04/08 02:02:00;;;;;;;32.15;17.17;;;;;;;6.83;59.56;99922.31;4488277;31;20087;-88
2023/04/08 02:04:25;;;;;;;31.87;16.50;;;;;;;6.69;59.55;99917.34;4487059;31;34462;-88
2023/04/08 02:06:50;;;;;;;31.55;16.30;;;;;;;6.87;59.56;99916.25;4475053;31;20139;-88
2023/04/08 02:09:16;;;;;;;29.75;15.98;;;;;;;6.71;59.55;99917.34;4488124;31;20128;-88
2023/04/08 02:11:41;;;;;;;30.90;16.08;;;;;;;6.78;59.56;99914.63;4487611;31;20156;-88
2023/04/08 02:14:07;;;;;;;32.05;16.25;;;;;;;6.74;59.55;99923.31;4487853;31;20153;-89
2023/04/08 02:16:42;;;;;;;28.30;15.27;;;;;;;6.78;59.56;99921.53;4487601;31;20104;-88
2023/04/08 02:19:10;;;;;;;33.55;17.10;;;;;;;6.78;59.56;99918.94;4488005;31;20087;-89
2023/04/08 02:21:42;;;;;;;35.42;17.70;;;;;;;6.66;59.56;99914.81;4488388;31;20160;-88
2023/04/08 02:24:07;;;;;;;32.63;17.62;;;;;;;6.71;59.55;99914.75;4488508;31;20377;-88
2023/04/08 02:26:33;;;;;;;35.05;17.58;;;;;;;6.83;59.56;99917.16;4488091;31;20160;-88
2023/04/08 02:28:59;;;;;;;38.50;18.17;;;;;;;6.85;59.56;99917.13;4488106;31;20122;-88
2023/04/08 02:31:24;;;;;;;33.72;17.08;;;;;;;6.76;59.55;99916.38;4501262;31;20185;-88
2023/04/08 02:33:50;;;;;;;32.72;17.15;;;;;;;6.86;59.56;99917.13;4501006;31;20157;-88
2023/04/08 02:36:15;;;;;;;32.92;16.87;;;;;;;6.74;59.56;99909.53;4488141;31;20127;-89
2023/04/08 02:38:41;;;;;;;31.60;17.17;;;;;;;6.77;59.55;99917.25;4488109;31;20376;-88
2023/04/08 02:41:06;;;;;;;36.22;18.35;;;;;;;6.81;59.56;99913.72;4488146;31;20392;-88
2023/04/08 02:43:31;;;;;;;29.40;15.98;;;;;;;6.71;59.55;99914.75;4488118;31;20162;-88
2023/04/08 02:45:59;;;;;;;35.88;17.08;;;;;;;6.81;59.56;99912.88;4488594;31;20092;-88
2023/04/08 02:48:25;;;;;;;32.42;16.02;;;;;;;6.77;59.55;99910.34;4476540;31;20098;-88
2023/04/08 02:50:50;;;;;;;32.63;16.83;;;;;;;6.74;59.56;99906.94;4489436;31;20103;-88
2023/04/08 02:53:15;;;;;;;34.85;16.90;;;;;;;6.75;59.55;99912.09;4474861;31;20464;-89
2023/04/08 02:55:41;;;;;;;31.90;16.30;;;;;;;6.76;59.55;99911.22;4487675;31;20112;-88
2023/04/08 02:58:06;;;;;;;32.58;16.77;;;;;;;6.74;59.56;99912.13;4500224;31;29003;-88
2023/04/08 03:00:32;;;;;;;34.50;16.73;;;;;;;6.77;59.55;99918.09;4487834;31;20092;-89
2023/04/08 03:02:57;;;;;;;33.45;16.30;;;;;;;6.86;59.56;99914.53;4474518;31;20165;-88
2023/04/08 03:05:23;;;;;;;30.80;15.77;;;;;;;6.78;59.56;99909.47;4487445;31;20516;-89
2023/04/08 03:07:48;;;;;;;31.92;16.12;;;;;;;6.68;59.55;99915.66;4487871;31;20096;-89
2023/04/08 03:10:14;;;;;;;31.08;15.45;;;;;;;6.74;59.56;99912.13;4487299;31;20088;-88
2023/04/08 03:12:40;;;;;;;34.58;17.60;;;;;;;6.78;59.56;99914.63;4486993;31;20096;-88
2023/04/08 03:15:06;;;;;;;34.08;16.35;;;;;;;6.73;59.56;99915.59;4487665;31;20155;-88
2023/04/08 03:17:33;;;;;;;33.65;17.45;;;;;;;6.78;59.56;99918.94;4487784;31;20147;-88
2023/04/08 03:19:59;;;;;;;32.97;16.15;;;;;;;6.72;59.56;99917.31;4487891;31;20092;-88
2023/04/08 03:22:25;;;;;;;32.25;16.85;;;;;;;6.82;59.56;99920.62;4487773;31;20120;-88
2023/04/08 03:24:50;;;;;;;33.88;16.77;;;;;;;6.77;59.56;99917.25;4487435;31;20163;-89
2023/04/08 03:27:15;;;;;;;33.25;16.62;;;;;;;6.75;59.56;99914.69;4487463;31;20148;-88
2023/04/08 03:29:41;;;;;;;33.38;16.45;;;;;;;6.81;59.57;99928.41;4499870;31;31990;-89
2023/04/08 03:32:06;;;;;;;33.08;16.15;;;;;;;6.88;59.57;99924.87;4474346;31;20124;-88
2023/04/08 03:34:35;;;;;;;33.63;16.73;;;;;;;6.59;59.55;99928.69;4501329;31;21758;-88
2023/04/08 03:37:01;;;;;;;32.57;16.13;;;;;;;6.72;59.55;99926.81;4487867;31;20114;-88
2023/04/08 03:39:26;;;;;;;29.30;15.57;;;;;;;6.96;59.57;99933.37;4500544;31;20080;-89
2023/04/08 03:41:52;;;;;;;32.20;16.33;;;;;;;7.01;59.57;99923.81;4500300;31;20367;-88
2023/04/08 03:44:17;;;;;;;32.15;15.82;;;;;;;6.87;59.56;99933.50;4487477;31;20118;-88
2023/04/08 03:46:43;;;;;;;30.80;15.32;;;;;;;6.85;59.56;99938.69;4473962;31;20093;-88
2023/04/08 03:49:08;;;;;;;35.25;16.65;;;;;;;6.81;59.56;99937.03;4500707;31;20120;-88
2023/04/08 03:51:33;;;;;;;29.80;15.00;;;;;;;6.95;59.57;99937.69;4486831;31;24333;-88
2023/04/08 03:53:59;;;;;;;32.95;16.67;;;;;;;6.96;59.57;99946.31;4500301;31;20148;-89
2023/04/08 03:56:24;;;;;;;32.13;17.12;;;;;;;7.15;59.57;99946.91;4487345;31;20143;-88
2023/04/08 03:58:50;;;;;;;31.52;15.30;;;;;;;6.92;59.56;99942.91;4501753;31;20088;-88
2023/04/08 04:01:15;;;;;;;31.48;16.12;;;;;;;7.08;59.57;99941.78;4500830;31;20427;-88
2023/04/08 04:03:41;;;;;;;33.63;15.75;;;;;;;6.97;59.57;99946.28;4474414;31;20088;-89
2023/04/08 04:06:06;;;;;;;32.55;16.00;;;;;;;7.13;59.57;99944.34;4487360;31;29340;-88
2023/04/08 04:08:31;;;;;;;30.90;15.50;;;;;;;6.90;59.57;99949.84;4488739;31;20118;-88
2023/04/08 04:10:58;;;;;;;28.15;14.55;;;;;;;6.84;59.56;99952.50;4474521;31;20892;-89
2023/04/08 04:13:23;;;;;;;27.20;15.25;;;;;;;6.98;59.57;99950.59;4487072;31;20127;-88
2023/04/08 04:15:49;;;;;;;29.10;14.70;;;;;;;6.93;59.56;99954.97;4499416;31;31456;-88
2023/04/08 04:18:14;;;;;;;28.45;14.50;;;;;;;6.94;59.56;99966.19;4500155;31;20132;-89
2023/04/08 04:20:43;;;;;;;33.08;16.50;;;;;;;6.94;59.56;99950.66;4499609;31;20152;-88
2023/04/08 04:23:08;;;;;;;24.95;13.77;;;;;;;6.86;59.56;99968.88;4486652;31;20146;-88
2023/04/08 04:25:34;;;;;;;28.95;14.10;;;;;;;6.81;59.56;99965.47;4488142;31;20104;-88
2023/04/08 04:28:00;;;;;;;28.42;14.98;;;;;;;6.94;59.56;99966.19;4488876;31;20072;-87
2023/04/08 04:30:26;;;;;;;28.98;14.75;;;;;;;6.89;59.56;99967.97;4475856;31;20107;-88
2023/04/08 04:32:51;;;;;;;26.77;13.50;;;;;;;6.94;59.55;99971.34;4488907;31;20142;-89
2023/04/08 04:35:17;;;;;;;28.30;14.15;;;;;;;6.99;59.57;99970.41;4488510;31;20137;-89
2023/04/08 04:37:42;;;;;;;33.38;15.50;;;;;;;6.96;59.57;99967.88;4488549;31;20107;-88
2023/04/08 04:40:08;;;;;;;29.45;14.75;;;;;;;6.99;59.57;99970.41;4488688;31;20595;-89
2023/04/08 04:42:33;;;;;;;31.77;14.77;;;;;;;7.00;59.57;99966.09;4502004;31;20130;-89
2023/04/08 04:44:59;;;;;;;26.70;14.13;;;;;;;6.91;59.56;99967.09;4475407;31;20373;-89
2023/04/08 04:47:24;;;;;;;29.35;14.45;;;;;;;6.86;59.56;99965.41;4475588;31;20421;-89
2023/04/08 04:49:50;;;;;;;32.15;15.18;;;;;;;6.87;59.56;99960.25;4488726;31;20120;-89
2023/04/08 04:52:15;;;;;;;27.92;14.38;;;;;;;6.76;59.55;99972.44;4488626;31;20396;-88
2023/04/08 04:54:41;;;;;;;31.50;15.15;;;;;;;6.69;59.55;99974.28;4488238;31;20479;-89
2023/04/08 04:57:06;;;;;;;27.70;14.27;;;;;;;6.75;59.55;99971.59;4488525;31;20111;-89
2023/04/08 04:59:31;;;;;;;31.92;15.93;;;;;;;6.89;59.56;99968.84;4475049;31;21224;-88
2023/04/08 05:01:57;;;;;;;31.37;16.30;;;;;;;6.75;59.55;99976.78;4488579;31;20538;-88
2023/04/08 05:04:23;;;;;;;635.75;278.92;;;;;;;6.91;59.56;99976.59;4500949;31;26560;-88
2023/04/08 05:06:48;;;;;;;69.75;38.63;;;;;;;6.90;59.56;99973.13;4475485;31;20119;-88
2023/04/08 05:09:14;;;;;;;35.85;19.60;;;;;;;6.94;59.56;99973.94;4488422;31;20138;-87
2023/04/08 05:11:40;;;;;;;29.33;14.65;;;;;;;6.81;59.56;99973.25;4475419;31;20104;-87
2023/04/08 05:14:06;;;;;;;30.33;15.70;;;;;;;6.77;59.55;99975.00;4488487;31;20160;-88
2023/04/08 05:16:31;;;;;;;29.55;14.23;;;;;;;6.83;59.56;99981.84;4488568;31;20106;-87
2023/04/08 05:18:57;;;;;;;30.77;15.18;;;;;;;6.92;59.56;99976.56;4488466;31;20100;-89
2023/04/08 05:21:22;;;;;;;30.67;15.05;;;;;;;6.78;59.55;99975.88;4487968;31;21620;-87
2023/04/08 05:23:49;;;;;;;32.63;14.93;;;;;;;6.82;59.56;99985.28;4488446;31;20139;-88
2023/04/08 05:26:15;;;;;;;24.85;13.35;;;;;;;6.75;59.55;99987.13;4488718;31;20096;-88
2023/04/08 05:28:40;;;;;;;26.33;13.50;;;;;;;6.78;59.55;99987.06;4475053;31;25851;-89
2023/04/08 05:31:06;;;;;;;25.52;12.80;;;;;;;7.03;59.57;99986.75;4488751;31;20129;-87
2023/04/08 05:33:31;;;;;;;33.75;22.13;;;;;;;6.93;59.56;99998.12;4475231;31;20108;-87
2023/04/08 05:35:56;;;;;;;23.87;12.70;;;;;;;6.87;59.56;100001.66;4488080;31;20383;-88
2023/04/08 05:38:22;;;;;;;26.83;13.40;;;;;;;6.83;59.56;99999.94;4487750;31;22822;-88
2023/04/08 05:40:47;;;;;;;26.08;13.43;;;;;;;6.91;59.56;100000.72;4488289;31;20148;-88
2023/04/08 05:43:13;;;;;;;26.95;13.30;;;;;;;7.01;59.56;99998.84;4474530;31;30419;-87
2023/04/08 05:45:38;;;;;;;24.80;12.90;;;;;;;7.05;59.58;100008.28;4501532;31;20140;-87
2023/04/08 05:48:03;;;;;;;26.05;12.95;;;;;;;6.93;59.56;100011.91;4488185;31;20152;-87
2023/04/08 05:50:29;;;;;;;21.42;11.27;;;;;;;6.84;59.56;100006.81;4488375;31;20118;-88
2023/04/08 05:52:54;;;;;;;20.58;11.75;;;;;;;6.95;59.57;100009.28;4488018;31;20088;-87
2023/04/08 05:55:20;;;;;;;20.20;10.85;;;;;;;6.90;59.56;100017.13;4501377;31;20136;-87
2023/04/08 05:57:45;;;;;;;21.23;10.65;;;;;;;6.91;59.56;100016.25;4501558;31;20158;-88
2023/04/08 06:00:11;;;;;;;18.23;10.35;;;;;;;6.89;59.56;100017.16;4474618;31;20177;-87
2023/04/08 06:02:36;;;;;;;17.58;10.32;;;;;;;7.03;59.58;100012.63;4487923;31;20123;-90
2023/04/08 06:05:02;;;;;;;18.62;10.25;;;;;;;7.00;59.57;100017.84;4488177;31;20358;-88
2023/04/08 06:07:28;;;;;;;18.67;10.10;;;;;;;6.97;59.57;100017.91;4488034;31;20121;-88
2023/04/08 06:09:54;;;;;;;20.17;10.43;;;;;;;6.97;59.57;100013.56;4488069;31;20112;-88
2023/04/08 06:12:19;;;;;;;21.27;9.95;;;;;;;6.96;59.57;100014.44;4488031;31;20107;-88
2023/04/08 06:14:44;;;;;;;19.85;10.52;;;;;;;6.97;59.56;100018.75;4487321;31;31860;-88
2023/04/08 06:17:10;;;;;;;22.27;10.50;;;;;;;6.95;59.57;100017.91;4475154;31;20462;-88
2023/04/08 06:19:36;;;;;;;19.20;10.30;;;;;;;7.03;59.57;100021.25;4488080;31;20107;-88
2023/04/08 06:22:01;;;;;;;20.85;10.10;;;;;;;7.02;59.56;100021.28;4487155;31;34608;-87
2023/04/08 06:24:28;;;;;;;19.25;10.73;;;;;;;7.08;59.57;100019.44;4474762;31;20129;-88
2023/04/08 06:26:53;;;;;;;19.45;9.90;;;;;;;7.05;59.57;100034.16;4475096;31;20104;-88
2023/04/08 06:29:20;;;;;;;19.00;9.98;;;;;;;7.04;59.58;100028.13;4501187;31;20160;-88
2023/04/08 06:31:45;;;;;;;21.98;10.50;;;;;;;7.05;59.58;100032.44;4487976;31;20084;-88
2023/04/08 06:34:11;;;;;;;15.27;9.50;;;;;;;7.08;59.57;100026.34;4488054;31;20157;-88
2023/04/08 06:36:36;;;;;;;15.70;9.15;;;;;;;7.04;59.58;100032.47;4474510;31;28531;-87
2023/04/08 06:39:02;;;;;;;20.50;9.57;;;;;;;7.00;59.57;100033.37;4503056;31;20123;-87
2023/04/08 06:41:28;;;;;;;18.65;9.68;;;;;;;7.05;59.57;100039.34;4488542;31;20092;-87
2023/04/08 06:43:53;;;;;;;17.77;9.30;;;;;;;7.03;59.57;100039.38;4501436;31;25271;-87
2023/04/08 06:46:18;;;;;;;17.00;9.80;;;;;;;6.96;59.57;100034.31;4489337;31;20424;-88
2023/04/08 06:48:44;;;;;;;14.35;8.18;;;;;;;7.15;59.57;100037.50;4476809;31;20142;-88
2023/04/08 06:51:10;;;;;;;15.30;8.73;;;;;;;7.08;59.57;100036.72;4476487;31;20110;-88
2023/04/08 06:53:35;;;;;;;14.85;8.40;;;;;;;7.13;59.57;100047.88;4475024;31;20103;-88
2023/04/08 06:56:01;;;;;;;15.57;8.55;;;;;;;7.17;59.57;100040.94;4487477;31;20176;-88
2023/04/08 06:58:26;;;;;;;17.45;9.55;;;;;;;7.20;59.58;100040.87;4487849;31;20142;-88
2023/04/08 07:00:55;;;;;;;17.12;9.27;;;;;;;7.14;59.57;100039.25;4487688;31;20099;-88
2023/04/08 07:03:21;;;;;;;17.77;9.80;;;;;;;7.22;59.58;100050.34;4474439;31;20084;-88
2023/04/08 07:05:46;;;;;;;19.20;10.05;;;;;;;7.23;59.58;100051.19;4474481;31;20127;-88
2023/04/08 07:08:12;;;;;;;18.67;10.57;;;;;;;7.24;59.58;100048.59;4474527;31;20107;-88
2023/04/08 07:10:37;;;;;;;20.42;9.88;;;;;;;7.06;59.57;100049.69;4487552;31;20148;-88
2023/04/08 07:13:03;;;;;;;21.35;10.27;;;;;;;7.09;59.57;100056.53;4487537;31;20374;-88
2023/04/08 07:15:28;;;;;;;21.15;10.65;;;;;;;7.11;59.58;100052.22;4500886;31;20456;-88
2023/04/08 07:17:55;;;;;;;20.77;10.90;;;;;;;7.20;59.58;100054.69;4487452;31;20099;-88
2023/04/08 07:20:21;;;;;;;22.90;10.93;;;;;;;7.08;59.57;100063.44;4474851;31;20148;-88
2023/04/08 07:22:47;;;;;;;20.27;10.88;;;;;;;7.19;59.58;100060.75;4487604;31;20100;-88
2023/04/08 07:25:12;;;;;;;19.67;10.65;;;;;;;7.22;59.58;100065.88;4500876;31;20420;-88
2023/04/08 07:27:38;;;;;;;19.92;10.90;;;;;;;7.28;59.58;100070.09;4487623;31;20112;-88
2023/04/08 07:30:03;;;;;;;15.80;9.40;;;;;;;7.49;59.60;100064.63;4500175;31;23767;-88
2023/04/08 07:32:29;;;;;;;16.08;9.18;;;;;;;7.48;59.60;100064.66;4474388;31;20088;-88
2023/04/08 07:34:54;;;;;;;14.90;9.32;;;;;;;7.30;59.58;100066.63;4487296;31;20126;-89
2023/04/08 07:37:20;;;;;;;17.42;10.02;;;;;;;7.29;59.58;100071.81;4500260;31;20107;-89
2023/04/08 07:39:45;;;;;;;17.27;9.00;;;;;;;7.41;59.59;100074.25;4501329;31;23277;-88
2023/04/08 07:42:10;;;;;;;17.65;10.00;;;;;;;7.52;59.59;100076.69;4486561;31;34892;-88
2023/04/08 07:44:37;;;;;;;17.20;9.65;;;;;;;7.55;59.60;100074.91;4487404;31;20167;-88
2023/04/08 07:47:02;;;;;;;16.98;9.43;;;;;;;7.55;59.60;100079.22;4474445;31;20503;-88
2023/04/08 07:49:28;;;;;;;17.17;9.52;;;;;;;7.56;59.60;100086.09;4474192;31;20126;-88
2023/04/08 07:51:53;;;;;;;15.93;9.30;;;;;;;7.52;59.60;100094.81;4487905;31;20119;-88
2023/04/08 07:54:18;;;;;;;17.95;9.32;;;;;;;7.61;59.61;100090.38;4486592;31;29994;-88
2023/04/08 07:56:44;;;;;;;15.55;8.75;;;;;;;7.59;59.60;100092.13;4486734;31;29617;-88
2023/04/08 07:59:10;;;;;;;17.10;9.93;;;;;;;7.48;59.60;100099.19;4486418;31;33565;-88
2023/04/08 08:01:35;;;;;;;13.88;8.30;;;;;;;7.48;59.60;100096.59;4488073;31;20083;-89
2023/04/08 08:04:01;;;;;;;22.42;10.35;;;;;;;7.35;59.59;100095.06;4473694;31;35048;-88
2023/04/08 08:06:26;;;;;;;16.40;8.93;;;;;;;7.47;59.59;100096.62;4502075;31;20087;-87
2023/04/08 08:08:52;;;;;;;14.50;8.77;;;;;;;7.50;59.60;100102.59;4488747;31;20132;-88
2023/04/08 08:11:18;;;;;;;20.58;9.48;;;;;;;7.55;59.60;100103.38;4500662;31;20077;-88
2023/04/08 08:13:43;;;;;;;15.80;9.18;;;;;;;7.60;59.60;100099.03;4500152;31;20126;-88
2023/04/08 08:16:10;;;;;;;16.15;9.35;;;;;;;7.65;59.61;100097.22;4486974;31;20145;-88
2023/04/08 08:18:37;;;;;;;17.85;9.32;;;;;;;7.67;59.60;100092.88;4487009;31;20083;-88
2023/04/08 08:21:03;;;;;;;18.75;9.40;;;;;;;7.86;59.62;100090.84;4487186;31;20107;-87
2023/04/08 08:23:28;;;;;;;17.30;9.38;;;;;;;7.96;59.62;100102.78;4500035;31;20563;-88
2023/04/08 08:26:06;;;;;;;15.95;9.00;;;;;;;8.10;59.63;100104.31;4501076;31;20120;-87
2023/04/08 08:28:32;;;;;;;17.52;9.10;;;;;;;8.14;59.63;100111.16;4499864;31;20500;-88
2023/04/08 08:30:58;;;;;;;16.67;9.38;;;;;;;8.06;59.62;100102.66;4486870;31;20153;-89
2023/04/08 08:33:24;;;;;;;16.33;9.25;;;;;;;8.19;59.63;100111.94;4473409;31;20092;-88
2023/04/08 08:35:49;;;;;;;18.58;8.57;;;;;;;8.01;59.63;100113.06;4486854;31;20099;-87
2023/04/08 08:38:16;;;;;;;17.33;8.63;;;;;;;7.91;59.61;100114.09;4486845;31;20141;-88
2023/04/08 08:40:42;;;;;;;15.50;8.45;;;;;;;7.73;59.61;100115.22;4501051;31;20080;-88
2023/04/08 08:43:08;;;;;;;15.60;8.98;;;;;;;7.79;59.61;100122.06;4473415;31;20108;-88
2023/04/08 08:45:33;;;;;;;14.57;7.78;;;;;;;7.98;59.62;100126.09;4473436;31;20113;-87
2023/04/08 08:47:59;;;;;;;16.10;8.32;;;;;;;7.98;59.62;100123.50;4485904;31;21876;-88
2023/04/08 08:50:25;;;;;;;12.90;8.18;;;;;;;8.05;59.62;100122.53;4499666;31;20084;-88
2023/04/08 08:52:51;;;;;;;14.75;7.47;;;;;;;8.07;59.63;100123.38;4500684;31;20194;-88
2023/04/08 08:55:19;;;;;;;15.60;8.52;;;;;;;8.12;59.63;100124.16;4486510;31;20160;-88
2023/04/08 08:57:45;;;;;;;13.27;8.57;;;;;;;8.20;59.64;100130.06;4486419;31;20448;-87
2023/04/08 09:00:12;;;;;;;13.70;7.60;;;;;;;8.23;59.64;100124.81;4486442;31;20091;-88
2023/04/08 09:02:37;;;;;;;18.50;8.95;;;;;;;8.23;59.64;100130.00;4500672;31;20106;-88
2023/04/08 09:05:03;;;;;;;15.30;8.55;;;;;;;8.36;59.64;100133.28;4485961;31;20203;-88
2023/04/08 09:07:30;;;;;;;18.52;9.60;;;;;;;8.22;59.64;100136.06;4486453;31;20144;-88
2023/04/08 09:09:56;;;;;;;17.83;9.07;;;;;;;8.20;59.63;100137.84;4486982;31;20128;-88
2023/04/08 09:12:22;;;;;;;18.50;10.05;;;;;;;8.21;59.63;100141.28;4489193;31;20538;-88
2023/04/08 09:14:47;;;;;;;16.70;9.43;;;;;;;8.09;59.63;100144.09;4502105;31;20099;-88
2023/04/08 09:17:13;;;;;;;17.90;9.52;;;;;;;8.22;59.64;100143.84;4488644;31;20131;-87
2023/04/08 09:19:39;;;;;;;18.55;9.63;;;;;;;8.20;59.63;100143.03;4502106;31;20154;-88
2023/04/08 09:22:09;;;;;;;18.42;10.02;;;;;;;8.08;59.63;100148.41;4489075;31;20389;-88
2023/04/08 09:24:35;;;;;;;15.55;9.38;;;;;;;8.11;59.63;100143.19;4476621;31;20119;-88
2023/04/08 09:27:01;;;;;;;16.90;9.23;;;;;;;8.22;59.63;100148.19;4490910;31;20087;-88
2023/04/08 09:29:26;;;;;;;19.92;8.80;;;;;;;8.32;59.64;100149.75;4477953;31;20126;-88
2023/04/08 09:31:53;;;;;;;16.50;8.65;;;;;;;8.32;59.64;100150.62;4489287;31;20122;-88
2023/04/08 09:34:20;;;;;;;16.17;9.00;;;;;;;8.36;59.64;100159.22;4475265;31;20126;-88
2023/04/08 09:36:47;;;;;;;16.02;8.38;;;;;;;8.28;59.64;100158.44;4475611;31;20166;-88
2023/04/08 09:39:13;;;;;;;16.05;8.40;;;;;;;8.23;59.64;100155.94;4488528;31;20400;-88
2023/04/08 09:41:38;;;;;;;15.68;10.35;;;;;;;8.47;59.65;100165.09;4488422;31;20144;-87
2023/04/08 09:44:06;;;;;;;18.08;9.63;;;;;;;8.45;59.65;100153.88;4488105;31;20107;-88
2023/04/08 09:46:32;;;;;;;18.98;9.32;;;;;;;8.56;59.65;100156.31;4501550;31;20088;-88
2023/04/08 09:49:17;;;;;;;17.20;9.52;;;;;;;8.47;59.65;100161.63;4488318;31;20116;-86
2023/04/08 09:51:47;;;;;;;16.52;8.23;;;;;;;8.36;59.64;100160.97;4502765;31;20096;-87
2023/04/08 09:54:13;;;;;;;;;;;;;;;8.18;59.63;100165.53;4488756;31;20428;-87
2023/04/08 09:56:42;;;;;;;17.37;8.75;;;;;;;8.06;59.62;100165.72;4502720;31;19972;-87
2023/04/08 09:59:16;;;;;;;16.58;9.05;;;;;;;8.06;59.62;100164.88;4488544;31;20141;-88
2023/04/08 10:01:46;;;;;;;16.92;9.18;;;;;;;7.92;59.62;100162.47;4501537;31;20127;-87
2023/04/08 10:04:13;;;;;;;;;;;;;;;8.13;59.63;100164.75;4501538;31;20100;-87
2023/04/08 10:06:39;;;;;;;18.23;9.32;;;;;;;8.09;59.63;100167.41;4501487;31;19971;-88
2023/04/08 10:09:04;;;;;;;19.12;10.02;;;;;;;8.16;59.64;100166.44;4501292;31;20495;-86
2023/04/08 10:11:30;;;;;;;20.55;12.02;;;;;;;8.06;59.62;100168.31;4475030;31;20103;-88
2023/04/08 10:13:55;;;;;;;21.58;12.25;;;;;;;8.06;59.63;100175.25;4500837;31;20120;-87
2023/04/08 10:16:21;;;;;;;19.17;10.07;;;;;;;8.06;59.62;100175.25;4488050;31;20425;-87
2023/04/08 10:18:48;;;;;;;16.70;10.13;;;;;;;8.08;59.63;100176.94;4488197;31;20153;-86
2023/04/08 10:21:33;;;;;;;16.92;9.82;;;;;;;7.92;59.62;100172.84;4475326;31;20441;-87
2023/04/08 10:24:00;;;;;;;18.67;10.40;;;;;;;7.97;59.62;100168.44;4502668;31;20100;-87
2023/04/08 10:26:30;;;;;;;16.20;8.70;;;;;;;8.00;59.63;100171.84;4475495;31;20118;-87
2023/04/08 10:29:17;;;;;;;18.30;9.68;;;;;;;7.91;59.61;100178.91;4501325;31;20106;-87
2023/04/08 10:31:51;;;;;;;17.48;9.57;;;;;;;7.66;59.61;100180.97;4501462;31;20159;-87
2023/04/08 10:34:21;;;;;;;17.92;10.10;;;;;;;7.66;59.60;100179.25;4501156;31;20107;-87
2023/04/08 10:36:47;;;;;;;16.25;10.07;;;;;;;7.91;59.61;100176.31;4488347;31;20096;-88
2023/04/08 10:39:13;;;;;;;17.83;9.88;;;;;;;7.88;59.62;100181.53;4488353;31;20108;-86
2023/04/08 10:41:44;;;;;;;17.17;10.27;;;;;;;8.12;59.63;100176.00;4488337;31;20116;-88
2023/04/08 10:44:29;;;;;;;18.10;9.02;;;;;;;8.36;59.64;100168.75;4502241;31;20112;-87
2023/04/08 10:46:54;;;;;;;18.02;9.50;;;;;;;8.50;59.65;100165.03;4503451;31;20118;-87
2023/04/08 10:49:20;;;;;;;16.58;9.50;;;;;;;8.38;59.65;100167.84;4501655;31;20148;-87
2023/04/08 10:51:46;;;;;;;18.15;9.77;;;;;;;8.53;59.66;100167.59;4475034;31;20112;-87
2023/04/08 10:54:13;;;;;;;17.15;9.80;;;;;;;8.69;59.66;100167.31;4487710;31;20107;-87
2023/04/08 10:56:50;;;;;;;14.35;8.82;;;;;;;8.86;59.67;100166.13;4488041;31;20112;-87
2023/04/08 10:59:35;;;;;;;17.12;9.27;;;;;;;8.97;59.68;100163.31;4487908;31;20424;-88
2023/04/08 11:02:01;;;;;;;15.02;8.82;;;;;;;8.99;59.68;100166.78;4500554;31;20130;-88
2023/04/08 11:04:26;;;;;;;15.55;8.43;;;;;;;8.96;59.67;100165.94;4487564;31;20159;-88
2023/04/08 11:06:52;;;;;;;18.00;9.57;;;;;;;9.02;59.68;100165.84;4487820;31;20115;-87
2023/04/08 11:09:17;;;;;;;17.50;9.55;;;;;;;9.21;59.70;100167.19;4474713;31;20092;-88
2023/04/08 11:11:44;;;;;;;15.48;8.90;;;;;;;9.27;59.70;100168.84;4500773;31;20517;-87
2023/04/08 11:14:09;;;;;;;15.32;9.07;;;;;;;9.12;59.69;100162.19;4487805;31;20196;-88
2023/04/08 11:16:36;;;;;;;15.80;10.10;;;;;;;9.19;59.70;100167.22;4502080;31;20140;-88
2023/04/08 11:19:04;;;;;;;15.15;9.07;;;;;;;9.11;59.68;100166.53;4474473;31;20111;-87
2023/04/08 11:21:30;;;;;;;16.75;9.95;;;;;;;9.16;59.69;100163.81;4487729;31;20168;-87